Time;durP1;ratioP1;P1;durP2;ratioP2;P2;SDS_P1;SDS_P2;PMS_P1;PMS_P2;Temp;Humidity;BMP_temperature;BMP_pressure;BME280_temperature;BME280_humidity;BME280_pressure;Samples;Min_cycle;Max_cycle;Signal;HPM_P1;HPM_P2
2020/01/31 00:01:42;;;;;;;1.30;1.20;;;;;;;19.03;39.89;99850.40;;;;-51
2020/01/31 00:04:42;;;;;;;1.30;1.20;;;;;;;19.03;39.89;99847.45;;;;-52
2020/01/31 00:07:57;;;;;;;1.30;1.20;;;;;;;19.02;39.88;99859.23;;;;-51
2020/01/31 00:10:48;;;;;;;1.32;1.20;;;;;;;19.01;39.90;99858.75;;;;-51
2020/01/31 00:13:42;;;;;;;1.29;1.19;;;;;;;19.00;39.90;99865.52;;;;-51
2020/01/31 00:16:42;;;;;;;1.77;1.25;;;;;;;18.98;39.92;99867.17;;;;-51
2020/01/31 00:19:42;;;;;;;1.28;1.18;;;;;;;18.97;39.93;99867.98;;;;-52
2020/01/31 00:22:42;;;;;;;1.21;1.13;;;;;;;18.96;39.96;99868.72;;;;-51
2020/01/31 00:25:42;;;;;;;1.30;1.20;;;;;;;18.94;39.95;99865.36;;;;-50
2020/01/31 00:28:42;;;;;;;1.27;1.17;;;;;;;18.94;39.96;99870.81;;;;-52
2020/01/31 00:31:42;;;;;;;1.40;1.30;;;;;;;18.92;39.94;99871.51;;;;-51
2020/01/31 00:34:42;;;;;;;1.29;1.19;;;;;;;18.91;39.97;99876.05;;;;-50
2020/01/31 00:37:42;;;;;;;1.27;1.17;;;;;;;18.90;39.98;99876.35;;;;-51
2020/01/31 00:40:42;;;;;;;1.30;1.20;;;;;;;18.89;39.93;99880.73;;;;-52
2020/01/31 00:43:42;;;;;;;1.30;1.20;;;;;;;18.88;39.94;99882.80;;;;-51
2020/01/31 00:46:42;;;;;;;1.43;1.33;;;;;;;18.86;39.97;99879.48;;;;-51
2020/01/31 00:49:42;;;;;;;1.80;1.21;;;;;;;18.85;39.98;99889.25;;;;-51
2020/01/31 00:52:42;;;;;;;1.29;1.20;;;;;;;18.83;39.98;99882.88;;;;-52
2020/01/31 00:55:42;;;;;;;1.04;1.04;;;;;;;18.82;39.98;99890.48;;;;-51
2020/01/31 00:58:42;;;;;;;1.51;1.20;;;;;;;18.82;39.98;99886.66;;;;-51
2020/01/31 01:01:42;;;;;;;1.27;1.20;;;;;;;18.81;40.03;99887.32;;;;-52
2020/01/31 01:04:42;;;;;;;1.10;1.10;;;;;;;18.79;40.00;99883.84;;;;-51
2020/01/31 01:07:42;;;;;;;1.25;1.13;;;;;;;18.80;39.99;99885.52;;;;-51
2020/01/31 01:10:42;;;;;;;1.24;1.16;;;;;;;18.78;40.01;99885.60;;;;-51
2020/01/31 01:13:42;;;;;;;1.30;1.20;;;;;;;18.77;40.02;99882.65;;;;-51
2020/01/31 01:16:42;;;;;;;1.27;1.17;;;;;;;18.76;40.01;99877.16;;;;-51
2020/01/31 01:19:42;;;;;;;1.03;1.03;;;;;;;18.74;40.03;99887.45;;;;-51
2020/01/31 01:22:42;;;;;;;1.15;1.11;;;;;;;18.73;40.03;99884.74;;;;-51
2020/01/31 01:25:42;;;;;;;1.03;1.03;;;;;;;18.72;40.03;99888.15;;;;-51
2020/01/31 01:30:02;;;;;;;1.20;1.10;;;;;;;18.72;40.03;99889.72;;;;-51
2020/01/31 01:33:42;;;;;;;1.23;1.18;;;;;;;18.70;40.07;99878.81;;;;-51
2020/01/31 01:36:42;;;;;;;1.20;1.10;;;;;;;18.68;40.06;99874.55;;;;-51
2020/01/31 01:39:42;;;;;;;1.29;1.19;;;;;;;18.69;40.08;99871.64;;;;-51
2020/01/31 01:42:42;;;;;;;1.29;1.19;;;;;;;18.67;40.08;99882.20;;;;-51
2020/01/31 01:45:42;;;;;;;1.19;1.10;;;;;;;18.67;40.10;99878.92;;;;-51
2020/01/31 01:48:42;;;;;;;1.31;1.21;;;;;;;18.66;40.06;99882.90;;;;-51
2020/01/31 01:51:42;;;;;;;1.14;1.10;;;;;;;18.64;40.08;99872.89;;;;-51
2020/01/31 01:54:42;;;;;;;1.10;1.03;;;;;;;18.64;40.12;99876.47;;;;-51
2020/01/31 01:57:42;;;;;;;1.15;1.13;;;;;;;18.63;40.10;99877.20;;;;-51
2020/01/31 02:00:42;;;;;;;1.13;1.10;;;;;;;18.61;40.12;99877.63;;;;-50
2020/01/31 02:03:42;;;;;;;1.21;1.13;;;;;;;18.61;40.13;99880.03;;;;-51
2020/01/31 02:06:42;;;;;;;1.13;1.08;;;;;;;18.60;40.14;99877.75;;;;-50
2020/01/31 02:09:42;;;;;;;1.23;1.15;;;;;;;18.59;40.15;99872.80;;;;-50
2020/01/31 02:12:42;;;;;;;1.00;1.00;;;;;;;18.58;40.15;99872.26;;;;-51
2020/01/31 02:15:42;;;;;;;1.30;1.20;;;;;;;18.58;40.14;99868.55;;;;-51
2020/01/31 02:18:42;;;;;;;1.20;1.10;;;;;;;18.56;40.15;99862.14;;;;-51
2020/01/31 02:21:42;;;;;;;1.24;1.14;;;;;;;18.56;40.13;99851.02;;;;-51
2020/01/31 02:24:42;;;;;;;1.03;1.03;;;;;;;18.55;40.14;99857.83;;;;-50
2020/01/31 02:27:42;;;;;;;0.95;0.95;;;;;;;18.54;40.16;99857.69;;;;-52
2020/01/31 02:30:42;;;;;;;1.00;1.00;;;;;;;18.53;40.18;99866.78;;;;-52
2020/01/31 02:33:42;;;;;;;1.25;1.16;;;;;;;18.52;40.18;99873.09;;;;-51
2020/01/31 02:36:42;;;;;;;1.01;1.00;;;;;;;18.52;40.16;99874.27;;;;-51
2020/01/31 02:39:42;;;;;;;1.11;1.01;;;;;;;18.51;40.18;99878.00;;;;-51
2020/01/31 02:42:42;;;;;;;1.17;1.10;;;;;;;18.50;40.19;99880.88;;;;-51
2020/01/31 02:45:42;;;;;;;1.00;1.00;;;;;;;18.50;40.19;99884.28;;;;-52
2020/01/31 02:48:42;;;;;;;1.10;1.10;;;;;;;18.49;40.21;99892.10;;;;-50
2020/01/31 02:51:42;;;;;;;0.99;0.99;;;;;;;18.47;40.20;99884.70;;;;-50
2020/01/31 02:54:42;;;;;;;1.14;1.10;;;;;;;18.47;40.19;99893.96;;;;-51
2020/01/31 02:57:42;;;;;;;1.03;1.03;;;;;;;18.46;40.22;99889.75;;;;-51
2020/01/31 03:00:42;;;;;;;1.02;1.02;;;;;;;18.45;40.22;99884.52;;;;-50
2020/01/31 03:03:42;;;;;;;1.11;1.09;;;;;;;18.44;40.19;99885.42;;;;-51
2020/01/31 03:06:42;;;;;;;1.07;1.07;;;;;;;18.43;40.21;99879.86;;;;-51
2020/01/31 03:09:42;;;;;;;1.06;1.06;;;;;;;18.42;40.23;99870.46;;;;-51
2020/01/31 03:12:42;;;;;;;1.01;1.01;;;;;;;18.42;40.22;99873.03;;;;-50
2020/01/31 03:15:42;;;;;;;1.17;1.12;;;;;;;18.42;40.23;99871.36;;;;-51
2020/01/31 03:18:42;;;;;;;1.15;1.10;;;;;;;18.40;40.22;99869.05;;;;-51
2020/01/31 03:21:42;;;;;;;1.20;1.10;;;;;;;18.39;40.23;99873.02;;;;-51
2020/01/31 03:24:42;;;;;;;1.10;1.10;;;;;;;18.39;40.25;99869.67;;;;-51
2020/01/31 03:27:42;;;;;;;1.12;1.10;;;;;;;18.38;40.26;99873.41;;;;-51
2020/01/31 03:30:42;;;;;;;0.93;0.93;;;;;;;18.37;40.24;99857.33;;;;-52
2020/01/31 03:33:42;;;;;;;1.02;1.02;;;;;;;18.36;40.25;99864.48;;;;-51
2020/01/31 03:36:42;;;;;;;1.03;1.02;;;;;;;18.36;40.25;99862.27;;;;-51
2020/01/31 03:39:42;;;;;;;0.99;0.99;;;;;;;18.35;40.27;99866.11;;;;-51
2020/01/31 03:42:42;;;;;;;1.02;1.02;;;;;;;18.34;40.26;99877.34;;;;-51
2020/01/31 03:45:42;;;;;;;1.00;1.00;;;;;;;18.34;40.27;99880.17;;;;-51
2020/01/31 03:48:42;;;;;;;0.93;0.93;;;;;;;18.33;40.25;99876.96;;;;-51
2020/01/31 03:51:42;;;;;;;1.00;1.00;;;;;;;18.33;40.29;99894.02;;;;-51
2020/01/31 03:54:42;;;;;;;1.03;1.03;;;;;;;18.32;40.31;99898.88;;;;-50
2020/01/31 03:57:42;;;;;;;0.95;0.95;;;;;;;18.31;40.29;99901.32;;;;-51
2020/01/31 04:00:42;;;;;;;1.00;1.00;;;;;;;18.31;40.30;99908.38;;;;-51
2020/01/31 04:03:42;;;;;;;1.07;1.07;;;;;;;18.31;40.29;99904.02;;;;-51
2020/01/31 04:06:42;;;;;;;1.00;1.00;;;;;;;18.30;40.29;99907.66;;;;-51
2020/01/31 04:09:42;;;;;;;0.99;0.99;;;;;;;18.29;40.29;99910.00;;;;-51
2020/01/31 04:12:42;;;;;;;0.90;0.90;;;;;;;18.28;40.30;99920.75;;;;-51
2020/01/31 04:15:42;;;;;;;0.81;0.81;;;;;;;18.28;40.31;99927.78;;;;-51
2020/01/31 04:18:42;;;;;;;0.89;0.89;;;;;;;18.28;40.32;99938.17;;;;-51
2020/01/31 04:21:42;;;;;;;0.92;0.92;;;;;;;18.26;40.32;99949.32;;;;-51
2020/01/31 04:24:42;;;;;;;0.90;0.90;;;;;;;18.27;40.33;99947.48;;;;-51
2020/01/31 04:27:42;;;;;;;0.95;0.95;;;;;;;18.25;40.33;99959.98;;;;-52
2020/01/31 04:30:42;;;;;;;0.99;0.99;;;;;;;18.25;40.35;99964.28;;;;-51
2020/01/31 04:33:42;;;;;;;1.05;1.05;;;;;;;18.24;40.34;99973.24;;;;-52
2020/01/31 04:36:42;;;;;;;0.99;0.99;;;;;;;18.24;40.35;99973.38;;;;-50
2020/01/31 04:39:42;;;;;;;0.99;0.99;;;;;;;18.24;40.35;99977.11;;;;-51
2020/01/31 04:42:42;;;;;;;0.90;0.90;;;;;;;18.23;40.35;99982.70;;;;-51
2020/01/31 04:45:42;;;;;;;0.89;0.89;;;;;;;18.23;40.38;99983.83;;;;-51
2020/01/31 04:48:42;;;;;;;1.03;1.00;;;;;;;18.23;40.38;99988.04;;;;-51
2020/01/31 04:51:42;;;;;;;0.90;0.90;;;;;;;18.24;40.36;99985.01;;;;-51
2020/01/31 04:54:42;;;;;;;0.87;0.87;;;;;;;18.26;40.34;99990.34;;;;-51
2020/01/31 04:57:42;;;;;;;0.90;0.90;;;;;;;18.28;40.36;100001.52;;;;-51
2020/01/31 05:00:42;;;;;;;0.88;0.88;;;;;;;18.29;40.37;100012.59;;;;-51
2020/01/31 05:03:42;;;;;;;0.91;0.91;;;;;;;18.31;40.36;100015.32;;;;-51
2020/01/31 05:06:42;;;;;;;1.04;1.00;;;;;;;18.34;40.34;100014.17;;;;-51
2020/01/31 05:09:42;;;;;;;0.92;0.92;;;;;;;18.38;40.29;100013.14;;;;-52
2020/01/31 05:12:42;;;;;;;0.80;0.80;;;;;;;18.40;40.30;100014.33;;;;-51
2020/01/31 05:15:42;;;;;;;0.89;0.89;;;;;;;18.43;40.33;100022.14;;;;-51
2020/01/31 05:18:42;;;;;;;0.90;0.90;;;;;;;18.49;40.28;100027.30;;;;-51
2020/01/31 05:21:42;;;;;;;1.07;1.07;;;;;;;18.51;40.22;100029.50;;;;-52
2020/01/31 05:24:42;;;;;;;0.93;0.93;;;;;;;18.55;40.38;100027.05;;;;-52
2020/01/31 05:27:42;;;;;;;0.79;0.79;;;;;;;18.59;40.36;100030.23;;;;-50
2020/01/31 05:30:42;;;;;;;0.97;0.97;;;;;;;18.62;40.38;100027.58;;;;-51
2020/01/31 05:33:42;;;;;;;0.87;0.87;;;;;;;18.65;40.30;100037.67;;;;-51
2020/01/31 05:36:42;;;;;;;0.81;0.81;;;;;;;18.69;40.43;100027.47;;;;-51
2020/01/31 05:39:42;;;;;;;0.89;0.89;;;;;;;18.70;40.33;100025.89;;;;-52
2020/01/31 05:42:42;;;;;;;0.91;0.91;;;;;;;18.74;40.38;100027.73;;;;-51
2020/01/31 05:45:42;;;;;;;0.85;0.85;;;;;;;18.77;40.42;100035.78;;;;-52
2020/01/31 05:48:42;;;;;;;0.90;0.90;;;;;;;18.82;40.34;100041.50;;;;-51
2020/01/31 05:51:42;;;;;;;0.89;0.89;;;;;;;18.84;40.32;100046.44;;;;-51
2020/01/31 05:54:42;;;;;;;1.00;1.00;;;;;;;18.88;40.36;100054.86;;;;-52
2020/01/31 05:57:42;;;;;;;0.86;0.86;;;;;;;18.90;40.37;100065.59;;;;-52
2020/01/31 06:00:42;;;;;;;1.00;1.00;;;;;;;18.93;40.31;100071.73;;;;-52
2020/01/31 06:03:42;;;;;;;0.80;0.80;;;;;;;18.95;40.46;100074.82;;;;-52
2020/01/31 06:06:45;;;;;;;0.88;0.88;;;;;;;18.98;40.36;100083.88;;;;-51
2020/01/31 06:09:52;;;;;;;0.88;0.88;;;;;;;18.99;40.37;100086.93;;;;-51
2020/01/31 06:13:05;;;;;;;0.92;0.89;;;;;;;19.02;40.45;100089.50;;;;-51
2020/01/31 06:18:42;;;;;;;0.90;0.90;;;;;;;19.07;40.36;100100.31;;;;-51
2020/01/31 06:21:42;;;;;;;1.00;1.00;;;;;;;19.11;40.37;100099.47;;;;-52
2020/01/31 06:24:42;;;;;;;0.90;0.90;;;;;;;19.12;40.34;100107.38;;;;-52
2020/01/31 06:27:42;;;;;;;0.85;0.85;;;;;;;19.15;40.34;100114.63;;;;-50
2020/01/31 06:30:42;;;;;;;0.87;0.87;;;;;;;19.16;40.35;100115.03;;;;-51
2020/01/31 06:33:42;;;;;;;0.85;0.85;;;;;;;19.18;40.27;100107.31;;;;-51
2020/01/31 06:36:42;;;;;;;0.70;0.70;;;;;;;19.20;40.34;100110.30;;;;-52
2020/01/31 06:39:42;;;;;;;0.99;0.99;;;;;;;19.23;40.35;100118.80;;;;-52
2020/01/31 06:42:42;;;;;;;0.76;0.76;;;;;;;19.23;40.34;100122.75;;;;-52
2020/01/31 06:45:42;;;;;;;0.94;0.94;;;;;;;19.25;40.33;100119.71;;;;-51
2020/01/31 06:48:42;;;;;;;0.81;0.81;;;;;;;19.25;40.24;100116.47;;;;-51
2020/01/31 06:51:42;;;;;;;0.75;0.75;;;;;;;19.28;40.27;100119.33;;;;-51
2020/01/31 06:54:42;;;;;;;0.91;0.91;;;;;;;19.27;40.26;100122.14;;;;-51
2020/01/31 06:57:42;;;;;;;0.89;0.89;;;;;;;19.30;40.26;100124.50;;;;-51
2020/01/31 07:00:42;;;;;;;0.77;0.77;;;;;;;19.29;40.22;100126.34;;;;-50
2020/01/31 07:03:42;;;;;;;0.78;0.78;;;;;;;19.31;40.19;100134.75;;;;-51
2020/01/31 07:06:42;;;;;;;0.90;0.90;;;;;;;19.32;40.18;100149.13;;;;-50
2020/01/31 07:09:42;;;;;;;0.80;0.80;;;;;;;19.33;40.16;100155.63;;;;-51
2020/01/31 07:15:58;;;;;;;0.76;0.76;;;;;;;19.36;40.08;100160.44;;;;-50
2020/01/31 07:18:47;;;;;;;0.93;0.93;;;;;;;19.39;40.14;100162.13;;;;-51
2020/01/31 07:25:42;;;;;;;0.90;0.90;;;;;;;19.43;40.09;100175.25;;;;-52
2020/01/31 07:28:42;;;;;;;0.89;0.89;;;;;;;19.45;40.10;100182.44;;;;-51
2020/01/31 07:31:42;;;;;;;0.80;0.80;;;;;;;19.46;40.03;100187.50;;;;-52
2020/01/31 07:34:42;;;;;;;0.87;0.87;;;;;;;19.47;40.05;100191.93;;;;-51
2020/01/31 07:37:42;;;;;;;0.87;0.87;;;;;;;19.50;40.09;100194.80;;;;-51
2020/01/31 07:40:42;;;;;;;0.74;0.74;;;;;;;19.50;40.05;100198.41;;;;-51
2020/01/31 07:43:42;;;;;;;0.80;0.80;;;;;;;19.50;40.01;100197.14;;;;-51
2020/01/31 07:46:42;;;;;;;0.85;0.85;;;;;;;19.52;40.03;100193.44;;;;-51
2020/01/31 07:49:42;;;;;;;0.80;0.80;;;;;;;19.51;40.00;100195.61;;;;-51
2020/01/31 07:52:42;;;;;;;0.90;0.90;;;;;;;19.53;39.99;100193.30;;;;-51
2020/01/31 07:55:42;;;;;;;0.87;0.87;;;;;;;19.54;39.96;100199.81;;;;-51
2020/01/31 07:58:42;;;;;;;0.83;0.83;;;;;;;19.55;39.93;100210.58;;;;-51
2020/01/31 08:01:42;;;;;;;0.89;0.89;;;;;;;19.54;39.95;100212.05;;;;-51
2020/01/31 08:04:42;;;;;;;0.67;0.67;;;;;;;19.55;39.91;100215.77;;;;-51
2020/01/31 08:07:42;;;;;;;0.84;0.84;;;;;;;19.55;39.91;100221.97;;;;-51
2020/01/31 08:10:42;;;;;;;0.70;0.70;;;;;;;19.55;39.88;100219.02;;;;-51
2020/01/31 08:13:42;;;;;;;0.88;0.88;;;;;;;19.55;39.87;100222.36;;;;-51
2020/01/31 08:16:42;;;;;;;0.70;0.70;;;;;;;19.55;39.86;100233.59;;;;-51
2020/01/31 08:19:42;;;;;;;0.70;0.70;;;;;;;19.56;39.86;100232.12;;;;-56
2020/01/31 08:22:55;;;;;;;0.83;0.83;;;;;;;19.56;39.84;100230.05;;;;-56
2020/01/31 08:25:42;;;;;;;0.80;0.80;;;;;;;19.57;39.84;100233.66;;;;-56
2020/01/31 08:28:42;;;;;;;0.81;0.81;;;;;;;19.57;39.82;100243.15;;;;-56
2020/01/31 08:31:42;;;;;;;0.66;0.66;;;;;;;19.56;39.85;100246.45;;;;-56
2020/01/31 08:34:42;;;;;;;0.90;0.90;;;;;;;19.56;39.82;100240.93;;;;-56
2020/01/31 08:37:42;;;;;;;0.69;0.69;;;;;;;19.57;39.83;100248.58;;;;-56
2020/01/31 08:40:42;;;;;;;0.80;0.80;;;;;;;19.56;39.81;100250.48;;;;-56
2020/01/31 08:43:51;;;;;;;0.79;0.79;;;;;;;19.55;39.83;100255.30;;;;-56
2020/01/31 08:46:42;;;;;;;0.80;0.80;;;;;;;19.55;39.81;100259.21;;;;-56
2020/01/31 08:49:42;;;;;;;0.71;0.71;;;;;;;19.54;39.78;100261.34;;;;-56
2020/01/31 08:58:45;;;;;;;1.40;0.95;;;;;;;19.56;40.41;100257.68;;;;-49
2020/01/31 09:04:49;;;;;;;0.87;0.84;;;;;;;19.59;40.54;100257.36;;;;-49
2020/01/31 09:08:04;;;;;;;1.09;0.96;;;;;;;19.61;40.61;100257.45;;;;-49
2020/01/31 09:13:42;;;;;;;1.15;0.91;;;;;;;19.66;40.48;100269.05;;;;-53
2020/01/31 09:16:42;;;;;;;2.54;1.01;;;;;;;19.67;40.48;100265.06;;;;-49
2020/01/31 09:19:42;;;;;;;4.29;0.99;;;;;;;19.72;40.76;100265.67;;;;-50
2020/01/31 09:22:42;;;;;;;1.55;0.80;;;;;;;19.74;40.73;100271.15;;;;-50
2020/01/31 09:25:42;;;;;;;0.81;0.81;;;;;;;19.79;41.08;100268.80;;;;-57
2020/01/31 09:28:42;;;;;;;0.78;0.78;;;;;;;19.80;40.77;100267.16;;;;-55
2020/01/31 09:31:42;;;;;;;0.71;0.71;;;;;;;19.81;40.65;100271.73;;;;-54
2020/01/31 09:34:42;;;;;;;1.05;0.83;;;;;;;19.84;41.04;100272.29;;;;-60
2020/01/31 09:37:42;;;;;;;1.29;0.72;;;;;;;19.86;40.71;100277.46;;;;-51
2020/01/31 09:40:42;;;;;;;0.80;0.80;;;;;;;19.89;40.55;100275.13;;;;-50
2020/01/31 09:43:42;;;;;;;2.39;0.98;;;;;;;19.93;41.36;100274.45;;;;-51
2020/01/31 09:46:42;;;;;;;1.03;0.90;;;;;;;19.97;41.33;100288.02;;;;-52
2020/01/31 09:49:42;;;;;;;0.74;0.74;;;;;;;19.98;41.45;100286.79;;;;-55
2020/01/31 09:52:42;;;;;;;0.75;0.75;;;;;;;20.02;41.78;100290.83;;;;-50
2020/01/31 09:55:42;;;;;;;0.73;0.73;;;;;;;20.06;42.13;100290.92;;;;-54
2020/01/31 09:58:42;;;;;;;0.69;0.69;;;;;;;20.06;41.67;100293.27;;;;-54
2020/01/31 10:01:42;;;;;;;0.71;0.71;;;;;;;20.09;41.79;100303.45;;;;-56
2020/01/31 10:04:42;;;;;;;1.25;0.79;;;;;;;20.11;41.80;100301.02;;;;-49
2020/01/31 10:07:42;;;;;;;1.41;0.84;;;;;;;20.10;41.73;100304.33;;;;-53
2020/01/31 10:10:42;;;;;;;6.24;1.09;;;;;;;20.15;43.41;100304.92;;;;-59
2020/01/31 10:13:42;;;;;;;3.94;1.22;;;;;;;20.19;43.46;100307.27;;;;-51
2020/01/31 10:16:42;;;;;;;2.36;0.92;;;;;;;20.21;43.11;100301.41;;;;-57
2020/01/31 10:19:42;;;;;;;2.90;1.00;;;;;;;20.24;43.57;100299.55;;;;-53
2020/01/31 10:22:42;;;;;;;4.21;1.10;;;;;;;20.25;42.19;100302.06;;;;-51
2020/01/31 10:25:42;;;;;;;5.99;1.05;;;;;;;20.24;42.17;100300.55;;;;-51
2020/01/31 10:28:42;;;;;;;3.05;1.13;;;;;;;20.24;42.37;100305.01;;;;-52
2020/01/31 10:31:42;;;;;;;3.57;1.04;;;;;;;20.22;41.88;100311.00;;;;-51
2020/01/31 10:34:42;;;;;;;2.39;1.07;;;;;;;20.22;42.02;100296.75;;;;-51
2020/01/31 10:37:42;;;;;;;2.77;0.80;;;;;;;20.23;41.99;100298.86;;;;-52
2020/01/31 10:40:42;;;;;;;1.82;1.00;;;;;;;20.21;41.68;100302.14;;;;-51
2020/01/31 10:43:42;;;;;;;1.71;0.79;;;;;;;20.19;41.66;100294.79;;;;-52
2020/01/31 10:46:42;;;;;;;5.02;1.03;;;;;;;20.17;41.81;100294.61;;;;-52
2020/01/31 10:49:42;;;;;;;3.01;1.27;;;;;;;20.14;41.93;100291.23;;;;-52
2020/01/31 10:52:42;;;;;;;3.23;1.14;;;;;;;20.13;41.86;100284.66;;;;-55
2020/01/31 10:55:42;;;;;;;3.37;1.08;;;;;;;20.13;41.57;100289.52;;;;-56
2020/01/31 10:58:42;;;;;;;1.57;1.00;;;;;;;20.11;41.15;100293.37;;;;-56
2020/01/31 11:01:42;;;;;;;2.75;1.11;;;;;;;20.11;41.67;100293.13;;;;-52
2020/01/31 11:04:42;;;;;;;2.16;1.09;;;;;;;20.10;41.17;100299.97;;;;-52
2020/01/31 11:07:42;;;;;;;4.17;1.13;;;;;;;20.09;41.01;100299.33;;;;-52
2020/01/31 11:10:42;;;;;;;2.81;1.07;;;;;;;20.08;40.90;100296.44;;;;-52
2020/01/31 11:13:42;;;;;;;3.77;1.04;;;;;;;20.08;40.90;100296.20;;;;-52
2020/01/31 11:16:42;;;;;;;1.87;0.95;;;;;;;20.07;40.89;100294.48;;;;-52
2020/01/31 11:19:41;;;;;;;2.25;0.99;;;;;;;20.07;41.14;100289.13;;;;-53
2020/01/31 11:22:41;;;;;;;2.21;1.11;;;;;;;20.08;41.08;100290.34;;;;-56
2020/01/31 11:26:01;;;;;;;3.26;1.09;;;;;;;20.07;40.92;100287.38;;;;-56
2020/01/31 11:32:08;;;;;;;1.91;0.98;;;;;;;20.07;40.71;100283.69;;;;-56
2020/01/31 11:34:42;;;;;;;1.86;0.90;;;;;;;20.08;40.73;100283.53;;;;-56
2020/01/31 11:37:42;;;;;;;1.55;0.87;;;;;;;20.07;40.52;100278.83;;;;-58
2020/01/31 11:40:42;;;;;;;1.43;0.94;;;;;;;20.08;40.48;100280.28;;;;-59
2020/01/31 11:43:42;;;;;;;1.18;0.99;;;;;;;20.08;40.53;100286.65;;;;-58
2020/01/31 11:46:42;;;;;;;1.57;0.95;;;;;;;20.09;40.47;100292.22;;;;-58
2020/01/31 11:49:42;;;;;;;1.51;1.07;;;;;;;20.09;40.44;100282.22;;;;-58
2020/01/31 11:52:42;;;;;;;1.43;1.01;;;;;;;20.09;40.46;100285.69;;;;-57
2020/01/31 11:55:42;;;;;;;0.90;0.87;;;;;;;20.10;40.45;100283.88;;;;-58
2020/01/31 11:58:42;;;;;;;1.63;0.95;;;;;;;20.10;40.38;100286.12;;;;-58
2020/01/31 12:01:42;;;;;;;2.25;1.00;;;;;;;20.10;40.37;100277.73;;;;-58
2020/01/31 12:04:41;;;;;;;1.49;0.90;;;;;;;20.11;40.37;100277.44;;;;-57
2020/01/31 12:07:42;;;;;;;2.93;0.86;;;;;;;20.12;40.35;100282.51;;;;-57
2020/01/31 12:10:42;;;;;;;1.37;0.89;;;;;;;20.10;40.30;100282.37;;;;-57
2020/01/31 12:13:42;;;;;;;1.02;0.90;;;;;;;20.11;40.37;100284.25;;;;-58
2020/01/31 12:16:42;;;;;;;1.23;1.05;;;;;;;20.11;40.33;100277.20;;;;-54
2020/01/31 12:19:42;;;;;;;1.10;1.00;;;;;;;20.11;40.32;100280.73;;;;-54
2020/01/31 12:22:42;;;;;;;0.90;0.90;;;;;;;20.11;40.29;100283.91;;;;-53
2020/01/31 12:25:42;;;;;;;1.13;1.05;;;;;;;20.12;40.24;100284.02;;;;-53
2020/01/31 12:28:42;;;;;;;1.11;0.82;;;;;;;20.11;40.23;100280.56;;;;-52
2020/01/31 12:31:42;;;;;;;1.13;0.89;;;;;;;20.12;40.22;100287.14;;;;-52
2020/01/31 12:34:42;;;;;;;1.03;0.90;;;;;;;20.12;40.20;100282.95;;;;-53
2020/01/31 12:37:42;;;;;;;1.52;0.89;;;;;;;20.14;40.23;100279.23;;;;-53
2020/01/31 12:40:42;;;;;;;1.03;0.90;;;;;;;20.13;40.26;100287.17;;;;-53
2020/01/31 12:43:42;;;;;;;1.01;0.98;;;;;;;20.13;40.22;100279.80;;;;-54
2020/01/31 12:46:42;;;;;;;0.83;0.81;;;;;;;20.14;40.18;100275.98;;;;-53
2020/01/31 12:49:41;;;;;;;0.91;0.91;;;;;;;20.13;40.15;100272.09;;;;-52
2020/01/31 12:52:41;;;;;;;0.94;0.90;;;;;;;20.15;40.20;100278.09;;;;-54
2020/01/31 12:55:42;;;;;;;1.11;0.89;;;;;;;20.14;40.21;100278.50;;;;-53
2020/01/31 12:58:42;;;;;;;0.89;0.89;;;;;;;20.15;40.16;100284.64;;;;-53
2020/01/31 13:01:42;;;;;;;1.26;0.89;;;;;;;20.14;40.17;100281.34;;;;-54
2020/01/31 13:04:42;;;;;;;0.81;0.81;;;;;;;20.15;40.18;100283.30;;;;-54
2020/01/31 13:07:42;;;;;;;0.93;0.90;;;;;;;20.15;40.17;100285.58;;;;-54
2020/01/31 13:10:42;;;;;;;0.99;0.95;;;;;;;20.15;40.13;100284.80;;;;-53
2020/01/31 13:13:42;;;;;;;0.99;0.89;;;;;;;20.15;40.14;100293.69;;;;-53
2020/01/31 13:16:42;;;;;;;2.67;0.99;;;;;;;20.16;40.11;100289.54;;;;-52
2020/01/31 13:19:42;;;;;;;1.11;0.94;;;;;;;20.16;40.15;100286.35;;;;-53
2020/01/31 13:22:42;;;;;;;1.21;0.83;;;;;;;20.15;40.15;100284.13;;;;-53
2020/01/31 13:25:43;;;;;;;2.25;1.06;;;;;;;20.16;40.40;100280.32;;;;-45
2020/01/31 13:28:42;;;;;;;1.14;1.04;;;;;;;20.15;40.50;100277.03;;;;-46
2020/01/31 13:31:42;;;;;;;1.65;0.99;;;;;;;20.15;40.49;100279.61;;;;-52
2020/01/31 13:34:41;;;;;;;1.28;1.10;;;;;;;20.14;41.09;100277.56;;;;-51
2020/01/31 13:37:42;;;;;;;3.23;1.11;;;;;;;20.17;40.88;100283.38;;;;-51
2020/01/31 13:40:42;;;;;;;3.85;1.09;;;;;;;20.17;40.61;100281.97;;;;-52
2020/01/31 13:43:42;;;;;;;1.25;1.02;;;;;;;20.18;40.47;100288.78;;;;-52
2020/01/31 13:46:42;;;;;;;1.93;1.10;;;;;;;20.23;40.86;100284.52;;;;-45
2020/01/31 13:49:42;;;;;;;2.97;0.81;;;;;;;20.25;40.98;100287.54;;;;-52
2020/01/31 13:52:42;;;;;;;2.05;1.05;;;;;;;20.27;40.95;100286.78;;;;-53
2020/01/31 13:55:46;;;;;;;1.51;0.81;;;;;;;20.30;41.08;100286.46;;;;-56
2020/01/31 13:58:47;;;;;;;2.61;1.03;;;;;;;20.33;41.03;100286.00;;;;-56
2020/01/31 14:01:42;;;;;;;2.53;0.99;;;;;;;20.36;40.87;100289.30;;;;-57
2020/01/31 14:04:42;;;;;;;1.46;0.97;;;;;;;20.34;40.59;100290.47;;;;-58
2020/01/31 14:07:42;;;;;;;2.01;0.98;;;;;;;20.33;40.53;100296.41;;;;-57
2020/01/31 14:10:42;;;;;;;2.31;1.21;;;;;;;20.32;40.38;100296.59;;;;-58
2020/01/31 14:13:42;;;;;;;1.17;1.03;;;;;;;20.31;40.37;100301.66;;;;-57
2020/01/31 14:16:42;;;;;;;1.07;1.00;;;;;;;20.31;40.34;100304.95;;;;-57
2020/01/31 14:19:42;;;;;;;2.04;0.99;;;;;;;20.30;40.30;100298.06;;;;-57
2020/01/31 14:22:42;;;;;;;1.30;0.96;;;;;;;20.29;40.37;100294.67;;;;-58
2020/01/31 14:25:42;;;;;;;1.74;0.91;;;;;;;20.29;40.35;100297.22;;;;-57
2020/01/31 14:28:42;;;;;;;0.95;0.80;;;;;;;20.28;40.36;100301.64;;;;-57
2020/01/31 14:31:42;;;;;;;1.99;1.00;;;;;;;20.27;40.28;100296.34;;;;-57
2020/01/31 14:34:42;;;;;;;0.83;0.83;;;;;;;20.26;40.20;100304.48;;;;-56
2020/01/31 14:37:42;;;;;;;1.03;0.96;;;;;;;20.25;40.23;100309.67;;;;-57
2020/01/31 14:40:42;;;;;;;0.97;0.94;;;;;;;20.25;40.22;100314.54;;;;-57
2020/01/31 14:43:42;;;;;;;2.11;1.00;;;;;;;20.25;40.19;100318.00;;;;-57
2020/01/31 14:46:41;;;;;;;1.28;0.96;;;;;;;20.25;40.21;100322.86;;;;-57
2020/01/31 14:49:42;;;;;;;0.92;0.92;;;;;;;20.24;40.22;100320.64;;;;-57
2020/01/31 14:52:42;;;;;;;1.10;0.90;;;;;;;20.25;40.22;100320.91;;;;-57
2020/01/31 14:55:42;;;;;;;0.80;0.80;;;;;;;20.25;40.21;100322.55;;;;-58
2020/01/31 14:58:42;;;;;;;1.27;1.02;;;;;;;20.24;40.22;100325.80;;;;-56
2020/01/31 15:01:42;;;;;;;1.09;0.89;;;;;;;20.25;40.24;100324.09;;;;-58
2020/01/31 15:04:42;;;;;;;1.00;0.97;;;;;;;20.25;40.21;100323.22;;;;-57
2020/01/31 15:07:42;;;;;;;1.09;0.87;;;;;;;20.24;40.17;100324.30;;;;-57
2020/01/31 15:10:42;;;;;;;1.19;0.90;;;;;;;20.25;40.17;100332.11;;;;-57
2020/01/31 15:13:42;;;;;;;0.80;0.80;;;;;;;20.25;40.21;100332.38;;;;-57
2020/01/31 15:16:42;;;;;;;1.27;1.00;;;;;;;20.24;40.20;100328.19;;;;-57
2020/01/31 15:19:42;;;;;;;0.86;0.86;;;;;;;20.25;40.17;100328.42;;;;-57
2020/01/31 15:22:42;;;;;;;1.52;0.90;;;;;;;20.26;40.16;100329.64;;;;-58
2020/01/31 15:25:42;;;;;;;0.83;0.83;;;;;;;20.25;40.18;100320.17;;;;-58
2020/01/31 15:28:42;;;;;;;0.79;0.79;;;;;;;20.26;40.18;100329.97;;;;-57
2020/01/31 15:31:41;;;;;;;0.89;0.89;;;;;;;20.26;40.13;100329.94;;;;-58
2020/01/31 15:34:42;;;;;;;0.75;0.75;;;;;;;20.25;40.19;100326.34;;;;-58
2020/01/31 15:37:42;;;;;;;1.11;0.88;;;;;;;20.26;40.15;100328.43;;;;-57
2020/01/31 15:40:42;;;;;;;1.84;0.91;;;;;;;20.25;40.38;100327.52;;;;-56
2020/01/31 15:43:42;;;;;;;1.81;0.83;;;;;;;20.29;40.94;100334.08;;;;-57
2020/01/31 15:46:42;;;;;;;1.79;0.99;;;;;;;20.32;41.31;100325.45;;;;-55
2020/01/31 15:49:42;;;;;;;0.80;0.80;;;;;;;20.35;41.63;100324.05;;;;-55
2020/01/31 15:52:41;;;;;;;1.38;1.01;;;;;;;20.37;41.66;100322.29;;;;-55
2020/01/31 15:55:42;;;;;;;0.89;0.89;;;;;;;20.39;41.45;100321.63;;;;-54
2020/01/31 15:58:42;;;;;;;0.86;0.86;;;;;;;20.42;41.37;100314.93;;;;-57
2020/01/31 16:01:42;;;;;;;0.91;0.90;;;;;;;20.43;41.81;100311.78;;;;-61
2020/01/31 16:04:42;;;;;;;0.82;0.82;;;;;;;20.45;41.83;100309.00;;;;-56
2020/01/31 16:07:42;;;;;;;0.81;0.81;;;;;;;20.46;41.51;100308.64;;;;-58
2020/01/31 16:10:41;;;;;;;1.51;0.85;;;;;;;20.47;41.57;100307.23;;;;-59
2020/01/31 16:13:42;;;;;;;0.88;0.88;;;;;;;20.49;41.57;100309.13;;;;-60
2020/01/31 16:16:41;;;;;;;1.03;0.94;;;;;;;20.49;41.57;100303.89;;;;-52
2020/01/31 16:19:42;;;;;;;0.89;0.89;;;;;;;20.51;41.81;100307.39;;;;-56
2020/01/31 16:22:42;;;;;;;0.93;0.72;;;;;;;20.52;41.48;100308.50;;;;-60
2020/01/31 16:25:42;;;;;;;1.11;0.73;;;;;;;20.52;41.57;100310.05;;;;-56
2020/01/31 16:28:42;;;;;;;0.78;0.78;;;;;;;20.53;41.68;100307.42;;;;-53
2020/01/31 16:31:42;;;;;;;0.84;0.84;;;;;;;20.54;41.99;100308.58;;;;-54
2020/01/31 16:34:42;;;;;;;0.81;0.81;;;;;;;20.54;40.99;100308.30;;;;-60
2020/01/31 16:37:42;;;;;;;0.71;0.71;;;;;;;20.54;41.01;100309.08;;;;-59
2020/01/31 16:40:41;;;;;;;1.37;0.78;;;;;;;20.55;41.55;100307.11;;;;-65
2020/01/31 16:43:42;;;;;;;0.79;0.79;;;;;;;20.57;41.44;100306.84;;;;-60
2020/01/31 16:46:42;;;;;;;0.90;0.90;;;;;;;20.56;41.25;100309.48;;;;-54
2020/01/31 16:49:42;;;;;;;1.36;0.88;;;;;;;20.57;41.51;100305.40;;;;-54
2020/01/31 16:52:42;;;;;;;0.88;0.86;;;;;;;20.58;41.56;100304.77;;;;-60
2020/01/31 16:55:42;;;;;;;0.99;0.97;;;;;;;20.57;41.81;100307.18;;;;-50
2020/01/31 16:58:42;;;;;;;0.92;0.85;;;;;;;20.57;41.28;100309.53;;;;-51
2020/01/31 17:01:42;;;;;;;0.93;0.88;;;;;;;20.58;41.13;100317.34;;;;-52
2020/01/31 17:04:42;;;;;;;1.06;0.90;;;;;;;20.59;41.41;100319.50;;;;-53
2020/01/31 17:07:42;;;;;;;5.11;1.02;;;;;;;20.60;41.26;100323.16;;;;-52
2020/01/31 17:10:42;;;;;;;2.92;1.00;;;;;;;20.55;41.01;100325.06;;;;-52
2020/01/31 17:13:42;;;;;;;2.42;1.00;;;;;;;20.56;41.06;100321.57;;;;-52